»·PEaware :: N51254 KSNA-KCRQ

N51254 :: KSNA-KCRQ

FLIGHT INFORMATION

Flight Status: Arrived
Operator: Privately registered:
United States
More flights under this callsign
Pilot: Hasan B. (9605)
Aircraft: CESSNA 172 SKYHAWK
(C172)
More flights by this aircraft type
Origin: KSNA John Wayne-Orange Co
United States
Destination: KCRQ McClellan-Palomar
United States
More flights between these airports :: More routes between these airports
Route: V23 OCN
File this flight plan on PilotEdge
Remarks:
Altitude:
(Current/Filed)
5,000ft
Speed:
(Current/Filed)
100kts
Departed: 08-Nov-18 09:20 AM
Arrived: 08-Nov-18 10:01 AM
Distance/Time
Traveled:
44nm/0:41
Distance/Time
To Go:
Arrived

Flight Plot

Page will automatically refresh every two minutes.


Map Options




Map Legend


Flown Route
Filed Route
Departure Airport
Arrival Airport
Navaid (VOR, NDB)
Fix

Horizontal Profiles

Position Reports

Time Latitude Longitude Heading Altitude Ground
Speed
08-Nov-18 09:12 33.672574 -117.873165 202 60ft 0kts
08-Nov-18 09:13 33.672574 -117.873165 202 60ft 0kts
08-Nov-18 09:14 33.672574 -117.873165 202 60ft 0kts
08-Nov-18 09:15 33.672574 -117.873165 202 60ft 0kts
08-Nov-18 09:16 33.672574 -117.873165 202 60ft 0kts
08-Nov-18 09:17 33.672574 -117.873165 202 60ft 0kts
08-Nov-18 09:18 33.672031 -117.872738 86 60ft 10kts
08-Nov-18 09:19 33.676197 -117.870015 26 60ft 24kts
08-Nov-18 09:20 33.681261 -117.866579 109 60ft 7kts
08-Nov-18 09:21 33.681247 -117.866536 114 60ft 0kts
08-Nov-18 09:22 33.681246 -117.866534 115 60ft 0kts
08-Nov-18 09:23 33.673679 -117.870067 209 163ft 87kts
08-Nov-18 09:24 33.652269 -117.874291 182 1395ft 80kts
08-Nov-18 09:25 33.631351 -117.877393 196 2509ft 77kts
08-Nov-18 09:26 33.610052 -117.878972 184 3532ft 80kts
08-Nov-18 09:27 33.587378 -117.881610 183 4430ft 89kts
08-Nov-18 09:28 33.564104 -117.883403 187 5022ft 97kts
08-Nov-18 09:29 33.549506 -117.855939 99 4990ft 111kts
08-Nov-18 09:30 33.543575 -117.819949 100 5078ft 113kts
08-Nov-18 09:31 33.535452 -117.780454 112 4982ft 124kts
08-Nov-18 09:32 33.514542 -117.749720 137 4973ft 116kts
08-Nov-18 09:33 33.492900 -117.722009 134 5046ft 111kts
08-Nov-18 09:34 33.471855 -117.695017 134 5037ft 112kts
08-Nov-18 09:35 33.451910 -117.667054 132 5034ft 110kts
08-Nov-18 09:36 33.428379 -117.643004 133 5035ft 113kts
08-Nov-18 09:37 33.404115 -117.618382 133 5035ft 115kts
08-Nov-18 09:38 33.379582 -117.593260 133 5022ft 118kts
08-Nov-18 09:39 33.355119 -117.567034 131 5012ft 117kts
08-Nov-18 09:40 33.331207 -117.540526 131 5012ft 117kts
08-Nov-18 09:41 33.316104 -117.523730 131 5012ft 117kts
08-Nov-18 09:42 33.285319 -117.487034 128 5012ft 117kts
08-Nov-18 09:43 33.263940 -117.458081 120 5011ft 116kts
08-Nov-18 09:44 33.245076 -117.426849 119 5011ft 116kts
08-Nov-18 09:45 33.231855 -117.392103 96 4980ft 114kts
08-Nov-18 09:46 33.224869 -117.355115 84 4929ft 117kts
08-Nov-18 09:47 33.230292 -117.320530 87 5007ft 113kts
08-Nov-18 09:48 33.230191 -117.284205 86 5008ft 114kts
08-Nov-18 09:49 33.229770 -117.246234 87 5007ft 114kts
08-Nov-18 09:50 33.229188 -117.208061 87 5006ft 115kts
08-Nov-18 09:51 33.230778 -117.170008 76 5004ft 114kts
08-Nov-18 09:52 33.235861 -117.132609 76 5004ft 114kts
08-Nov-18 09:53 33.241054 -117.095113 76 5005ft 114kts
08-Nov-18 09:54 33.220428 -117.070367 151 3989ft 112kts
08-Nov-18 09:55 33.194004 -117.056497 163 3640ft 102kts
08-Nov-18 09:56 33.169865 -117.063362 215 3510ft 93kts
08-Nov-18 09:57 33.159066 -117.091439 267 3655ft 95kts
08-Nov-18 09:58 33.155031 -117.123420 258 3052ft 103kts
08-Nov-18 09:59 33.148139 -117.153524 262 2502ft 96kts
08-Nov-18 10:00 33.143675 -117.184915 258 1896ft 96kts
08-Nov-18 10:01 33.139159 -117.215664 256 1360ft 93kts
08-Nov-18 10:02 33.133963 -117.245547 263 835ft 93kts
08-Nov-18 10:03 33.129349 -117.273295 260 328ft 59kts
08-Nov-18 10:04 33.127478 -117.279897 201 309ft 0kts
08-Nov-18 10:05 33.127284 -117.277319 6 309ft 7kts
08-Nov-18 10:06 33.127351 -117.277365 315 309ft 0kts
08-Nov-18 10:07 33.127351 -117.277365 315 309ft 0kts
08-Nov-18 10:08 33.127351 -117.277365 315 309ft 0kts

Navigation Log

Ident Type
1. KSNA Airport
2. OCN Navaid
3. KCRQ Airport